createdAt,value
2023-03-26T00:02:09.244Z,87.69
2023-03-26T00:04:38.644Z,87.51
2023-03-26T00:07:09.929Z,87.55
2023-03-26T00:09:41.124Z,87.37
2023-03-26T00:12:10.094Z,87.46
2023-03-26T00:14:40.483Z,87.43
2023-03-26T00:17:09.470Z,87.43
2023-03-26T00:19:39.795Z,87.43
2023-03-26T00:22:10.649Z,87.53
2023-03-26T00:24:40.241Z,87.50
2023-03-26T00:27:09.132Z,87.44
2023-03-26T00:29:39.783Z,87.53
2023-03-26T00:32:09.058Z,87.70
2023-03-26T00:34:41.077Z,87.70
2023-03-26T00:37:12.088Z,87.73
2023-03-26T00:39:42.410Z,87.70
2023-03-26T00:42:14.431Z,87.82
2023-03-26T00:44:43.428Z,87.79
2023-03-26T00:47:13.039Z,87.76
2023-03-26T00:49:46.434Z,87.57
2023-03-26T00:52:18.418Z,87.64
2023-03-26T00:54:48.478Z,87.68
2023-03-26T00:57:32.778Z,87.75
2023-03-26T01:00:15.301Z,87.79
2023-03-26T01:02:47.911Z,87.69
2023-03-26T01:05:48.357Z,87.72
2023-03-26T01:08:27.131Z,87.69
2023-03-26T01:11:06.444Z,87.77
2023-03-26T01:13:38.232Z,87.61
2023-03-26T01:16:25.319Z,87.45
2023-03-26T01:18:58.247Z,87.24
2023-03-26T01:21:31.473Z,87.33
2023-03-26T01:24:02.503Z,87.27
2023-03-26T01:27:09.759Z,87.24
2023-03-26T01:29:47.630Z,87.20
2023-03-26T01:32:32.407Z,87.06
2023-03-26T01:35:20.980Z,87.08
2023-03-26T01:38:02.044Z,87.05
2023-03-26T01:40:42.197Z,86.97
2023-03-26T01:43:17.879Z,86.93
2023-03-26T01:45:49.971Z,87.04
2023-03-26T01:48:19.320Z,87.07
2023-03-26T01:50:53.163Z,87.15
2023-03-26T01:53:22.034Z,87.13
2023-03-26T01:56:03.434Z,87.22
2023-03-26T01:58:41.435Z,87.19
2023-03-26T02:01:23.870Z,87.13
2023-03-26T02:03:58.835Z,87.31
2023-03-26T02:06:33.885Z,87.11
2023-03-26T02:09:06.568Z,87.19
2023-03-26T02:11:38.570Z,87.26
2023-03-26T02:14:08.718Z,87.35
2023-03-26T02:16:38.857Z,87.29
2023-03-26T02:19:14.913Z,87.37
2023-03-26T02:21:46.468Z,87.38
2023-03-26T02:24:15.556Z,87.23
2023-03-26T02:26:45.351Z,87.26
2023-03-26T02:29:19.788Z,87.08
2023-03-26T02:31:50.021Z,86.92
2023-03-26T02:34:19.147Z,87.08
2023-03-26T02:36:52.452Z,87.10
2023-03-26T02:39:21.973Z,87.26
2023-03-26T02:41:56.879Z,87.33
2023-03-26T02:44:27.261Z,87.38
2023-03-26T02:47:16.335Z,87.42
2023-03-26T02:49:54.821Z,87.45
2023-03-26T02:52:36.879Z,87.41
2023-03-26T02:55:07.604Z,87.45
2023-03-26T02:57:39.248Z,87.32
2023-03-26T03:00:22.297Z,87.31
2023-03-26T03:03:11.143Z,87.18
2023-03-26T03:06:12.692Z,87.24
2023-03-26T03:08:47.520Z,87.09
2023-03-26T03:11:21.839Z,87.11
2023-03-26T03:13:54.101Z,87.17
2023-03-26T03:16:26.444Z,86.98
2023-03-26T03:18:57.432Z,86.90
2023-03-26T03:21:30.215Z,86.90
2023-03-26T03:23:59.918Z,86.65
2023-03-26T03:26:30.963Z,86.59
2023-03-26T03:29:05.756Z,86.44
2023-03-26T03:31:37.210Z,86.36
2023-03-26T03:34:07.601Z,86.29
2023-03-26T03:36:41.722Z,86.11
2023-03-26T03:39:20.243Z,85.90
2023-03-26T03:41:49.642Z,85.92
2023-03-26T03:44:18.863Z,85.94
2023-03-26T03:46:53.989Z,85.92
2023-03-26T03:49:23.539Z,85.94
2023-03-26T03:51:53.995Z,85.89
2023-03-26T03:54:29.938Z,85.81
2023-03-26T03:57:15.405Z,85.76
2023-03-26T04:00:01.818Z,85.75
2023-03-26T04:02:45.935Z,85.76
2023-03-26T04:05:15.567Z,85.73
2023-03-26T04:07:49.724Z,85.71
2023-03-26T04:10:43.217Z,85.80
2023-03-26T04:13:15.206Z,85.75
2023-03-26T04:16:12.056Z,85.77
2023-03-26T04:18:44.638Z,85.77
2023-03-26T04:21:17.036Z,85.74
2023-03-26T04:23:47.038Z,85.67
2023-03-26T04:26:43.455Z,85.66
2023-03-26T04:29:18.637Z,85.63
2023-03-26T04:31:50.043Z,85.64
2023-03-26T04:34:23.663Z,85.69
2023-03-26T04:37:04.631Z,85.64
2023-03-26T04:39:38.459Z,85.60
2023-03-26T04:42:34.442Z,85.47
2023-03-26T04:45:14.506Z,85.36
2023-03-26T04:47:45.898Z,85.40
2023-03-26T04:50:16.444Z,85.29
2023-03-26T04:52:47.633Z,85.34
2023-03-26T04:55:45.334Z,85.16
2023-03-26T04:58:20.961Z,85.09
2023-03-26T05:01:00.619Z,85.04
2023-03-26T05:03:48.347Z,85.07
2023-03-26T05:06:18.465Z,84.88
2023-03-26T05:08:49.312Z,84.80
2023-03-26T05:11:38.533Z,84.75
2023-03-26T05:14:08.885Z,84.64
2023-03-26T05:16:41.616Z,84.48
2023-03-26T05:19:14.086Z,84.28
2023-03-26T05:21:49.676Z,83.97
2023-03-26T05:24:19.452Z,84.01
2023-03-26T05:26:50.361Z,83.94
2023-03-26T05:29:24.442Z,83.73
2023-03-26T05:31:56.048Z,83.54
2023-03-26T05:34:26.673Z,83.58
2023-03-26T05:36:56.422Z,83.47
2023-03-26T05:39:47.671Z,83.42
2023-03-26T05:42:46.968Z,83.31
2023-03-26T05:45:39.178Z,83.51
2023-03-26T05:48:28.244Z,83.09
2023-03-26T05:50:58.326Z,82.72
2023-03-26T05:53:29.152Z,82.45
2023-03-26T05:56:20.677Z,82.08
2023-03-26T05:59:09.970Z,82.08
2023-03-26T06:01:57.949Z,81.61
2023-03-26T06:04:53.736Z,81.30
2023-03-26T06:07:33.660Z,81.42
2023-03-26T06:10:18.333Z,81.00
2023-03-26T06:12:52.304Z,80.90
2023-03-26T06:15:23.323Z,80.67
2023-03-26T06:18:03.750Z,82.43
2023-03-26T06:20:51.668Z,83.52
2023-03-26T06:23:28.855Z,84.37
2023-03-26T06:26:13.851Z,84.91
2023-03-26T06:29:04.205Z,85.18
2023-03-26T06:31:55.247Z,85.39
2023-03-26T06:34:32.895Z,85.54
2023-03-26T06:37:02.905Z,85.61
2023-03-26T06:39:32.636Z,85.91
2023-03-26T06:42:18.872Z,86.10
2023-03-26T06:45:23.927Z,86.40
2023-03-26T06:48:23.216Z,86.51
2023-03-26T06:51:11.849Z,86.70
2023-03-26T06:53:59.894Z,86.68
2023-03-26T06:57:02.936Z,86.72
2023-03-26T06:59:55.941Z,86.64
2023-03-26T07:02:44.405Z,85.37
2023-03-26T07:05:31.971Z,84.47
2023-03-26T07:08:25.113Z,83.56
2023-03-26T07:11:34.872Z,82.66
2023-03-26T07:14:27.309Z,81.68
2023-03-26T07:17:13.371Z,82.01
2023-03-26T07:19:57.717Z,81.25
2023-03-26T07:22:29.942Z,80.56
2023-03-26T07:25:27.940Z,78.62
2023-03-26T07:28:31.957Z,77.97
2023-03-26T07:31:24.722Z,77.35
2023-03-26T07:34:40.648Z,78.07
2023-03-26T07:37:47.212Z,78.75
2023-03-26T07:41:03.188Z,77.73
2023-03-26T07:44:19.120Z,77.80
2023-03-26T07:47:18.375Z,78.27
2023-03-26T07:50:15.670Z,78.19
2023-03-26T07:53:03.361Z,78.39
2023-03-26T07:55:59.953Z,79.24
2023-03-26T07:59:04.534Z,78.68
2023-03-26T08:02:05.050Z,78.58
2023-03-26T08:05:17.891Z,78.13
2023-03-26T08:08:26.650Z,77.98
2023-03-26T08:11:34.542Z,78.06
2023-03-26T08:14:27.383Z,77.05
2023-03-26T08:17:06.067Z,76.97
2023-03-26T08:19:57.438Z,77.27
2023-03-26T08:22:31.562Z,77.75
2023-03-26T08:25:05.504Z,77.24
2023-03-26T08:27:39.630Z,76.86
2023-03-26T08:30:14.290Z,76.87
2023-03-26T08:32:54.522Z,77.05
2023-03-26T08:35:26.362Z,77.38
2023-03-26T08:37:55.743Z,76.89
2023-03-26T08:40:58.067Z,75.60
2023-03-26T08:43:55.436Z,76.37
2023-03-26T08:47:11.532Z,76.05
2023-03-26T08:49:59.455Z,75.28
2023-03-26T08:52:58.801Z,73.80
2023-03-26T08:55:40.523Z,75.47
2023-03-26T08:58:36.537Z,74.87
2023-03-26T09:01:33.589Z,75.68
2023-03-26T09:04:44.089Z,75.67
2023-03-26T09:07:41.495Z,76.06
2023-03-26T09:10:40.663Z,75.52
2023-03-26T09:13:41.678Z,75.66
2023-03-26T09:16:44.357Z,77.25
2023-03-26T09:19:45.176Z,76.60
2023-03-26T09:22:45.620Z,74.17
2023-03-26T09:25:34.686Z,72.62
2023-03-26T09:28:33.875Z,72.49
2023-03-26T09:31:36.650Z,71.60
2023-03-26T09:34:28.070Z,72.19
2023-03-26T09:37:23.559Z,69.93
2023-03-26T09:40:06.856Z,71.31
2023-03-26T09:42:44.810Z,69.98
2023-03-26T09:45:43.702Z,70.39
2023-03-26T09:48:42.798Z,71.52
2023-03-26T09:51:27.714Z,71.79
2023-03-26T09:54:23.210Z,71.74
2023-03-26T09:57:03.280Z,71.71
2023-03-26T10:00:01.110Z,69.60
2023-03-26T10:02:52.689Z,69.04
2023-03-26T10:05:34.083Z,69.39
2023-03-26T10:08:30.847Z,68.91
2023-03-26T10:11:11.911Z,68.75
2023-03-26T10:13:56.513Z,69.07
2023-03-26T10:16:40.071Z,69.15
2023-03-26T10:19:52.401Z,68.42
2023-03-26T10:22:39.383Z,68.38
2023-03-26T10:25:35.971Z,68.77
2023-03-26T10:28:26.200Z,65.60
2023-03-26T10:31:06.026Z,65.99
2023-03-26T10:33:42.742Z,66.32
2023-03-26T10:36:29.151Z,68.20
2023-03-26T10:39:37.046Z,66.83
2023-03-26T10:42:22.215Z,68.67
2023-03-26T10:45:14.941Z,69.47
2023-03-26T10:48:23.584Z,71.24
2023-03-26T10:51:05.021Z,72.97
2023-03-26T10:53:42.834Z,76.10
2023-03-26T10:56:24.703Z,75.85
2023-03-26T10:59:05.883Z,75.54
2023-03-26T11:01:47.719Z,76.69
2023-03-26T11:04:32.730Z,74.97
2023-03-26T11:07:11.578Z,73.23
2023-03-26T11:09:49.079Z,73.84
2023-03-26T11:12:28.459Z,72.37
2023-03-26T11:15:13.804Z,70.80
2023-03-26T11:17:52.847Z,70.89
2023-03-26T11:20:27.713Z,69.94
2023-03-26T11:23:25.788Z,68.11
2023-03-26T11:25:59.513Z,66.93
2023-03-26T11:29:03.259Z,68.10
2023-03-26T11:31:49.112Z,66.65
2023-03-26T11:34:27.489Z,67.33
2023-03-26T11:36:58.915Z,68.09
2023-03-26T11:39:37.570Z,67.45
2023-03-26T11:42:11.669Z,67.62
2023-03-26T11:44:53.437Z,67.59
2023-03-26T11:47:31.031Z,65.86
2023-03-26T11:50:02.213Z,66.99
2023-03-26T11:52:31.472Z,65.38
2023-03-26T11:55:00.535Z,66.52
2023-03-26T11:57:35.334Z,65.98
2023-03-26T12:00:15.432Z,63.76
2023-03-26T12:02:46.681Z,64.11
2023-03-26T12:05:20.049Z,65.03
2023-03-26T12:07:54.252Z,63.37
2023-03-26T12:10:32.755Z,63.20
2023-03-26T12:13:22.903Z,61.81
2023-03-26T12:15:57.874Z,64.21
2023-03-26T12:18:28.497Z,63.78
2023-03-26T12:21:08.553Z,65.05
2023-03-26T12:23:56.506Z,64.81
2023-03-26T12:26:39.156Z,64.68
2023-03-26T12:29:12.542Z,65.24
2023-03-26T12:31:55.081Z,65.74
2023-03-26T12:34:34.245Z,65.31
2023-03-26T12:37:08.228Z,64.55
2023-03-26T12:40:07.450Z,64.69
2023-03-26T12:44:46.128Z,64.91
2023-03-26T12:45:23.717Z,65.22
2023-03-26T12:48:02.983Z,64.98
2023-03-26T12:50:51.062Z,65.52
2023-03-26T12:53:53.212Z,65.75
2023-03-26T12:56:35.623Z,66.15
2023-03-26T12:59:22.001Z,66.35
2023-03-26T13:02:15.500Z,66.76
2023-03-26T13:05:08.310Z,66.80
2023-03-26T13:07:53.407Z,67.43
2023-03-26T13:10:45.501Z,68.13
2023-03-26T13:13:45.271Z,68.20
2023-03-26T13:16:27.264Z,67.49
2023-03-26T13:19:02.312Z,66.34
2023-03-26T13:21:44.735Z,66.03
2023-03-26T13:24:25.362Z,66.43
2023-03-26T13:27:10.691Z,66.65
2023-03-26T13:29:55.797Z,66.71
2023-03-26T13:32:37.291Z,65.51
2023-03-26T13:35:23.755Z,66.26
2023-03-26T13:38:03.467Z,67.62
2023-03-26T13:40:45.435Z,66.57
2023-03-26T13:43:32.253Z,66.74
2023-03-26T13:46:13.274Z,66.67
2023-03-26T13:48:49.289Z,67.45
2023-03-26T13:51:30.872Z,69.32
2023-03-26T13:54:06.282Z,70.06
2023-03-26T13:56:43.451Z,70.24
2023-03-26T13:59:21.532Z,69.63
2023-03-26T14:01:58.234Z,70.42
2023-03-26T14:04:32.681Z,69.24
2023-03-26T14:07:10.348Z,69.63
2023-03-26T14:09:48.118Z,68.37
2023-03-26T14:12:28.973Z,67.83
2023-03-26T14:15:03.886Z,68.20
2023-03-26T14:17:40.116Z,68.44
2023-03-26T14:20:40.441Z,68.38
2023-03-26T14:23:44.719Z,67.58
2023-03-26T14:26:25.144Z,67.28
2023-03-26T14:29:33.933Z,67.95
2023-03-26T14:32:24.186Z,66.38
2023-03-26T14:35:08.858Z,66.56
2023-03-26T14:37:56.931Z,66.47
2023-03-26T14:40:58.572Z,66.86
2023-03-26T14:43:59.595Z,66.35
2023-03-26T14:46:53.740Z,66.09
2023-03-26T14:49:53.135Z,66.02
2023-03-26T14:52:31.508Z,64.80
2023-03-26T14:55:13.301Z,65.69
2023-03-26T14:58:14.075Z,65.75
2023-03-26T15:01:08.344Z,66.00
2023-03-26T15:04:25.685Z,66.06
2023-03-26T15:07:46.566Z,66.17
2023-03-26T15:11:07.613Z,66.64
2023-03-26T15:13:56.125Z,66.95
2023-03-26T15:16:59.737Z,66.67
2023-03-26T15:20:11.376Z,66.38
2023-03-26T15:23:15.335Z,66.53
2023-03-26T15:26:36.606Z,66.40
2023-03-26T15:29:41.091Z,66.53
2023-03-26T15:32:58.817Z,66.64
2023-03-26T15:35:56.976Z,66.97
2023-03-26T15:38:53.283Z,66.70
2023-03-26T15:41:33.928Z,67.16
2023-03-26T15:44:31.646Z,67.81
2023-03-26T15:47:26.680Z,67.92
2023-03-26T15:50:08.917Z,68.34
2023-03-26T15:52:53.882Z,68.25
2023-03-26T15:55:30.932Z,68.55
2023-03-26T15:58:15.122Z,68.54
2023-03-26T16:00:56.045Z,68.69
2023-03-26T16:03:40.141Z,68.75
2023-03-26T16:06:47.758Z,69.54
2023-03-26T16:09:33.810Z,69.07
2023-03-26T16:12:33.407Z,68.37
2023-03-26T16:15:23.848Z,68.50
2023-03-26T16:18:29.471Z,68.36
2023-03-26T16:21:40.741Z,68.29
2023-03-26T16:24:28.893Z,68.66
2023-03-26T16:27:22.865Z,69.51
2023-03-26T16:30:28.622Z,69.16
2023-03-26T16:33:11.719Z,69.28
2023-03-26T16:36:06.792Z,69.20
2023-03-26T16:38:52.983Z,69.55
2023-03-26T16:41:26.083Z,69.62
2023-03-26T16:44:11.535Z,69.63
2023-03-26T16:46:52.777Z,70.15
2023-03-26T16:49:35.430Z,70.61
2023-03-26T16:52:16.012Z,70.70
2023-03-26T16:54:50.173Z,70.87
2023-03-26T16:57:25.580Z,70.55
2023-03-26T17:00:24.562Z,71.16
2023-03-26T17:03:07.566Z,71.56
2023-03-26T17:05:43.903Z,72.06
2023-03-26T17:08:22.643Z,72.25
2023-03-26T17:11:19.131Z,72.66
2023-03-26T17:14:03.119Z,72.86
2023-03-26T17:16:40.775Z,73.16
2023-03-26T17:19:29.132Z,73.30
2023-03-26T17:22:06.874Z,73.28
2023-03-26T17:24:45.487Z,73.72
2023-03-26T17:27:49.542Z,74.11
2023-03-26T17:30:44.605Z,74.38
2023-03-26T17:33:27.892Z,74.74
2023-03-26T17:36:29.314Z,74.76
2023-03-26T17:39:23.180Z,75.28
2023-03-26T17:42:13.224Z,75.83
2023-03-26T17:44:46.195Z,76.40
2023-03-26T17:47:33.327Z,76.79
2023-03-26T17:50:17.965Z,76.70
2023-03-26T17:52:54.616Z,76.59
2023-03-26T17:55:30.090Z,77.33
2023-03-26T17:58:01.201Z,77.90
2023-03-26T18:00:35.808Z,78.33
2023-03-26T18:03:18.609Z,78.35
2023-03-26T18:05:48.658Z,78.66
2023-03-26T18:08:40.798Z,78.75
2023-03-26T18:11:38.536Z,78.59
2023-03-26T18:14:34.389Z,78.79
2023-03-26T18:17:06.031Z,79.23
2023-03-26T18:19:49.561Z,79.65
2023-03-26T18:22:23.489Z,80.00
2023-03-26T18:24:59.179Z,80.27
2023-03-26T18:27:38.024Z,80.42
2023-03-26T18:30:20.517Z,80.38
2023-03-26T18:32:58.824Z,80.16
2023-03-26T18:35:40.684Z,80.06
2023-03-26T18:38:18.776Z,80.42
2023-03-26T18:41:06.081Z,80.67
2023-03-26T18:43:44.083Z,81.04
2023-03-26T18:46:16.369Z,81.33
2023-03-26T18:48:47.144Z,81.55
2023-03-26T18:51:22.275Z,81.85
2023-03-26T18:53:57.744Z,82.35
2023-03-26T18:56:33.287Z,82.22
2023-03-26T18:59:05.863Z,82.02
2023-03-26T19:01:37.997Z,81.61
2023-03-26T19:04:14.663Z,81.39
2023-03-26T19:06:45.946Z,81.45
2023-03-26T19:09:30.946Z,81.68
2023-03-26T19:12:09.144Z,82.11
2023-03-26T19:14:55.598Z,82.15
2023-03-26T19:17:28.687Z,82.54
2023-03-26T19:19:58.363Z,82.33
2023-03-26T19:22:29.013Z,82.21
2023-03-26T19:25:01.425Z,82.53
2023-03-26T19:27:30.650Z,82.68
2023-03-26T19:29:59.892Z,83.02
2023-03-26T19:32:34.004Z,82.90
2023-03-26T19:35:04.220Z,82.57
2023-03-26T19:37:49.349Z,82.92
2023-03-26T19:40:24.668Z,83.20
2023-03-26T19:42:54.594Z,83.63
2023-03-26T19:45:26.656Z,83.90
2023-03-26T19:48:11.769Z,84.16
2023-03-26T19:50:54.656Z,84.30
2023-03-26T19:53:32.034Z,84.29
2023-03-26T19:56:12.884Z,84.36
2023-03-26T19:58:44.023Z,83.68
2023-03-26T20:01:17.773Z,83.78
2023-03-26T20:03:51.403Z,83.64
2023-03-26T20:06:37.855Z,83.57
2023-03-26T20:09:15.740Z,83.21
2023-03-26T20:11:46.474Z,83.35
2023-03-26T20:14:21.751Z,83.54
2023-03-26T20:16:51.827Z,83.63
2023-03-26T20:19:23.333Z,83.67
2023-03-26T20:21:54.084Z,84.05
2023-03-26T20:24:28.702Z,84.40
2023-03-26T20:26:58.979Z,84.65
2023-03-26T20:29:28.952Z,84.89
2023-03-26T20:31:58.940Z,85.32
2023-03-26T20:34:31.522Z,85.50
2023-03-26T20:37:02.182Z,85.37
2023-03-26T20:39:31.829Z,85.49
2023-03-26T20:42:02.468Z,85.64
2023-03-26T20:44:32.313Z,85.74
2023-03-26T20:47:04.369Z,85.92
2023-03-26T20:49:33.360Z,86.00
2023-03-26T20:52:03.040Z,86.17
2023-03-26T20:54:32.687Z,86.19
2023-03-26T20:57:02.811Z,86.36
2023-03-26T20:59:34.112Z,86.14
2023-03-26T21:02:04.348Z,85.89
2023-03-26T21:04:34.472Z,85.94
2023-03-26T21:07:17.490Z,86.18
2023-03-26T21:09:49.595Z,86.63
2023-03-26T21:12:27.741Z,87.02
2023-03-26T21:14:59.609Z,87.40
2023-03-26T21:17:32.192Z,87.59
2023-03-26T21:20:11.533Z,87.54
2023-03-26T21:22:49.646Z,87.64
2023-03-26T21:25:27.808Z,87.75
2023-03-26T21:28:39.415Z,87.51
2023-03-26T21:31:14.477Z,86.92
2023-03-26T21:33:44.638Z,86.63
2023-03-26T21:36:16.559Z,86.21
2023-03-26T21:38:47.227Z,86.29
2023-03-26T21:41:26.947Z,86.40
2023-03-26T21:43:59.934Z,86.26
2023-03-26T21:46:40.847Z,86.09
2023-03-26T21:49:10.855Z,86.08
2023-03-26T21:51:41.125Z,86.18
2023-03-26T21:54:24.661Z,86.16
2023-03-26T21:57:05.365Z,85.80
2023-03-26T21:59:39.895Z,85.45
2023-03-26T22:02:18.158Z,85.43
2023-03-26T22:04:51.833Z,85.39
2023-03-26T22:07:27.322Z,85.64
2023-03-26T22:09:59.855Z,85.85
2023-03-26T22:12:29.071Z,86.00
2023-03-26T22:15:00.925Z,86.24
2023-03-26T22:17:30.184Z,86.53
2023-03-26T22:20:00.712Z,86.89
2023-03-26T22:22:29.999Z,86.90
2023-03-26T22:24:59.252Z,86.80
2023-03-26T22:27:29.468Z,86.85
2023-03-26T22:30:01.367Z,87.02
2023-03-26T22:32:32.889Z,87.04
2023-03-26T22:35:03.692Z,86.93
2023-03-26T22:37:34.011Z,87.01
2023-03-26T22:40:07.756Z,87.28
2023-03-26T22:42:36.809Z,87.49
2023-03-26T22:45:08.683Z,87.52
2023-03-26T22:47:38.517Z,87.45
2023-03-26T22:50:09.697Z,87.41
2023-03-26T22:52:40.184Z,87.52
2023-03-26T22:55:11.222Z,87.49
2023-03-26T22:57:40.781Z,86.92
2023-03-26T23:00:17.103Z,86.56
2023-03-26T23:09:08.513Z,87.24
2023-03-26T23:11:37.394Z,87.40
2023-03-26T23:14:06.543Z,87.61
2023-03-26T23:16:38.345Z,87.59
2023-03-26T23:19:08.509Z,87.18
2023-03-26T23:21:37.465Z,87.11
2023-03-26T23:24:08.662Z,86.94
2023-03-26T23:26:49.514Z,87.15
2023-03-26T23:29:20.098Z,87.62
2023-03-26T23:31:48.978Z,87.58
2023-03-26T23:34:18.212Z,87.64
2023-03-26T23:36:47.106Z,88.20
2023-03-26T23:39:16.476Z,87.70
2023-03-26T23:41:45.626Z,87.82
2023-03-26T23:44:16.597Z,87.83
2023-03-26T23:46:45.501Z,87.76
2023-03-26T23:49:15.401Z,88.15
2023-03-26T23:51:44.361Z,88.35
2023-03-26T23:54:14.784Z,88.45
2023-03-26T23:56:43.660Z,88.17
2023-03-26T23:59:13.626Z,88.17
